createdAt,value
2019-05-17T00:01:07.436Z,89.10
2019-05-17T00:03:36.882Z,94.70
2019-05-17T00:06:06.929Z,96.80
2019-05-17T00:08:38.127Z,92.50
2019-05-17T00:11:08.914Z,94.60
2019-05-17T00:13:38.884Z,96.70
2019-05-17T00:16:08.619Z,92.60
2019-05-17T00:18:38.243Z,88.80
2019-05-17T00:21:07.898Z,97.20
2019-05-17T00:23:37.648Z,91.40
2019-05-17T00:26:07.289Z,90.40
2019-05-17T00:28:39.069Z,96.20
2019-05-17T00:31:08.554Z,92.10
2019-05-17T00:33:38.059Z,88.00
2019-05-17T00:36:07.374Z,91.90
2019-05-17T00:38:47.894Z,92.10
2019-05-17T00:41:08.604Z,90.90
2019-05-17T00:43:37.988Z,96.00
2019-05-17T00:46:07.415Z,88.80
2019-05-17T00:48:37.310Z,93.40
2019-05-17T00:51:10.263Z,95.40
2019-05-17T00:53:38.642Z,92.20
2019-05-17T00:56:07.795Z,91.70
2019-05-17T00:58:37.737Z,92.20
2019-05-17T01:01:08.263Z,93.20
2019-05-17T01:03:38.223Z,98.20
2019-05-17T01:06:07.915Z,92.50
2019-05-17T01:08:37.619Z,93.00
2019-05-17T01:11:07.746Z,95.30
2019-05-17T01:13:37.565Z,89.50
2019-05-17T01:16:07.550Z,90.20
2019-05-17T01:18:37.623Z,90.60
2019-05-17T01:21:08.088Z,95.80
2019-05-17T01:23:37.303Z,92.30
2019-05-17T01:26:07.515Z,93.10
2019-05-17T01:28:36.963Z,90.70
2019-05-17T01:31:06.901Z,87.50
2019-05-17T01:33:36.769Z,92.50
2019-05-17T01:36:07.013Z,91.40
2019-05-17T01:38:37.715Z,93.90
2019-05-17T01:41:07.676Z,96.50
2019-05-17T01:43:37.014Z,96.40
2019-05-17T01:46:06.867Z,95.40
2019-05-17T01:48:49.486Z,93.80
2019-05-17T01:51:18.825Z,95.90
2019-05-17T01:53:48.075Z,94.80
2019-05-17T01:56:17.318Z,96.80
2019-05-17T01:58:47.109Z,89.80
2019-05-17T02:01:17.121Z,95.00
2019-05-17T02:03:47.048Z,92.30
2019-05-17T02:06:16.723Z,92.80
2019-05-17T02:08:47.558Z,95.30
2019-05-17T02:11:18.370Z,92.00
2019-05-17T02:13:48.153Z,91.60
2019-05-17T02:16:17.671Z,94.90
2019-05-17T02:18:46.915Z,93.40
2019-05-17T02:21:16.834Z,92.40
2019-05-17T02:23:46.991Z,93.60
2019-05-17T02:26:17.416Z,94.20
2019-05-17T02:28:47.085Z,91.50
2019-05-17T02:31:16.745Z,90.80
2019-05-17T02:33:46.123Z,91.90
2019-05-17T02:36:15.355Z,94.00
2019-05-17T02:38:44.738Z,91.90
2019-05-17T02:41:14.590Z,87.70
2019-05-17T02:43:44.417Z,91.20
2019-05-17T02:46:13.912Z,88.80
2019-05-17T02:48:43.595Z,93.10
2019-05-17T02:51:13.372Z,87.90
2019-05-17T02:53:52.707Z,87.30
2019-05-17T02:56:23.115Z,89.30
2019-05-17T02:58:53.361Z,89.90
2019-05-17T03:01:23.213Z,91.10
2019-05-17T03:03:53.057Z,91.80
2019-05-17T03:06:23.225Z,89.80
2019-05-17T03:08:52.656Z,89.10
2019-05-17T03:11:22.813Z,87.70
2019-05-17T03:13:52.847Z,89.30
2019-05-17T03:16:35.596Z,90.90
2019-05-17T03:19:04.820Z,94.80
2019-05-17T03:21:34.134Z,90.20
2019-05-17T03:24:03.883Z,94.60
2019-05-17T03:26:45.291Z,94.50
2019-05-17T03:29:14.526Z,93.40
2019-05-17T03:31:53.544Z,87.30
2019-05-17T03:34:17.625Z,88.00
2019-05-17T03:36:47.623Z,94.10
2019-05-17T03:39:23.439Z,91.80
2019-05-17T03:41:53.628Z,96.70
2019-05-17T03:44:24.221Z,98.20
2019-05-17T03:46:53.646Z,96.00
2019-05-17T03:49:23.283Z,94.90
2019-05-17T03:51:53.388Z,95.70
2019-05-17T03:54:23.255Z,96.30
2019-05-17T03:56:53.370Z,91.60
2019-05-17T03:59:29.784Z,96.00
2019-05-17T04:01:59.090Z,93.00
2019-05-17T04:04:29.029Z,92.10
2019-05-17T04:06:58.226Z,93.00
2019-05-17T04:09:27.467Z,88.40
2019-05-17T04:11:56.891Z,88.50
2019-05-17T04:14:26.219Z,90.80
2019-05-17T04:16:55.859Z,86.80
2019-05-17T04:19:27.464Z,92.10
2019-05-17T04:21:56.931Z,90.80
2019-05-17T04:24:26.799Z,86.60
2019-05-17T04:27:03.825Z,88.40
2019-05-17T04:29:33.509Z,89.50
2019-05-17T04:32:04.157Z,93.20
2019-05-17T04:34:36.347Z,92.30
2019-05-17T04:37:05.666Z,92.50
2019-05-17T04:39:34.946Z,95.10
2019-05-17T04:42:04.446Z,93.90
2019-05-17T04:44:33.718Z,94.50
2019-05-17T04:47:03.522Z,91.40
2019-05-17T04:49:33.407Z,94.70
2019-05-17T04:52:03.714Z,95.50
2019-05-17T04:54:34.091Z,92.10
2019-05-17T04:57:03.420Z,91.00
2019-05-17T04:59:34.079Z,90.50
2019-05-17T05:02:03.673Z,90.60
2019-05-17T05:04:38.173Z,95.50
2019-05-17T05:07:04.946Z,97.10
2019-05-17T05:09:34.561Z,89.90
2019-05-17T05:12:06.242Z,93.70
2019-05-17T05:14:35.027Z,87.70
2019-05-17T05:17:04.270Z,93.80
2019-05-17T05:19:33.511Z,95.20
2019-05-17T05:22:04.564Z,90.60
2019-05-17T05:24:37.115Z,92.10
2019-05-17T05:27:07.298Z,91.80
2019-05-17T05:29:36.499Z,95.10
2019-05-17T05:32:06.580Z,94.60
2019-05-17T05:34:36.167Z,90.60
2019-05-17T05:37:05.917Z,91.00
2019-05-17T05:39:35.305Z,88.80
2019-05-17T05:42:13.831Z,91.80
2019-05-17T05:44:41.871Z,90.00
2019-05-17T05:47:23.646Z,93.00
2019-05-17T05:49:53.246Z,89.60
2019-05-17T05:52:22.570Z,90.10
2019-05-17T05:54:52.633Z,88.50
2019-05-17T05:57:22.050Z,87.70
2019-05-17T05:59:52.002Z,86.90
2019-05-17T06:02:21.847Z,90.00
2019-05-17T06:04:51.936Z,91.50
2019-05-17T06:07:21.757Z,91.80
2019-05-17T06:09:51.745Z,91.60
2019-05-17T06:12:27.681Z,93.00
2019-05-17T06:14:54.451Z,89.20
2019-05-17T06:17:24.009Z,90.90
2019-05-17T06:19:53.305Z,91.50
2019-05-17T06:22:22.989Z,90.80
2019-05-17T06:24:52.829Z,89.40
2019-05-17T06:27:22.059Z,90.80
2019-05-17T06:29:51.681Z,90.10
2019-05-17T06:32:22.807Z,91.60
2019-05-17T06:34:52.294Z,92.20
2019-05-17T06:37:22.502Z,89.90
2019-05-17T06:39:52.619Z,89.80
2019-05-17T06:42:37.027Z,89.80
2019-05-17T06:44:53.601Z,91.50
2019-05-17T06:47:23.170Z,92.70
2019-05-17T06:49:53.440Z,91.40
2019-05-17T06:52:23.165Z,90.80
2019-05-17T06:54:52.897Z,88.80
2019-05-17T06:57:23.299Z,90.20
2019-05-17T06:59:53.027Z,90.00
2019-05-17T07:02:22.395Z,90.70
2019-05-17T07:04:53.499Z,91.20
2019-05-17T07:07:30.476Z,90.70
2019-05-17T07:10:00.793Z,91.20
2019-05-17T07:12:30.650Z,89.50
2019-05-17T07:15:01.815Z,89.30
2019-05-17T07:17:31.984Z,90.20
2019-05-17T07:20:01.311Z,91.30
2019-05-17T07:22:31.560Z,90.90
2019-05-17T07:25:00.819Z,90.10
2019-05-17T07:27:41.096Z,90.20
2019-05-17T07:30:01.267Z,90.50
2019-05-17T07:32:35.266Z,89.60
2019-05-17T07:35:04.529Z,89.50
2019-05-17T07:37:33.775Z,92.90
2019-05-17T07:40:05.214Z,90.70
2019-05-17T07:42:34.012Z,87.50
2019-05-17T07:45:03.453Z,92.20
2019-05-17T07:47:33.027Z,88.60
2019-05-17T07:50:02.750Z,87.60
2019-05-17T07:52:31.917Z,86.70
2019-05-17T07:55:02.629Z,88.80
2019-05-17T07:57:32.800Z,89.70
2019-05-17T08:00:02.082Z,87.80
2019-05-17T08:02:31.652Z,85.60
2019-05-17T08:05:01.607Z,88.10
2019-05-17T08:07:30.904Z,84.40
2019-05-17T08:10:00.407Z,90.70
2019-05-17T08:12:30.410Z,84.60
2019-05-17T08:15:06.532Z,87.00
2019-05-17T08:17:35.754Z,86.90
2019-05-17T08:20:05.344Z,83.40
2019-05-17T08:22:34.939Z,88.80
2019-05-17T08:25:04.347Z,88.70
2019-05-17T08:27:33.556Z,88.50
2019-05-17T08:30:03.287Z,86.70
2019-05-17T08:32:33.068Z,86.00
2019-05-17T08:35:02.309Z,84.90
2019-05-17T08:37:31.912Z,86.90
2019-05-17T08:40:01.562Z,86.80
2019-05-17T08:42:31.110Z,83.30
2019-05-17T08:45:00.486Z,82.80
2019-05-17T08:47:30.442Z,84.90
2019-05-17T08:50:00.595Z,81.10
2019-05-17T08:52:29.823Z,94.70
2019-05-17T08:55:00.434Z,82.90
2019-05-17T08:57:30.428Z,92.30
2019-05-17T09:00:01.059Z,87.20
2019-05-17T09:02:51.482Z,87.50
2019-05-17T09:05:21.487Z,85.30
2019-05-17T09:07:51.030Z,89.30
2019-05-17T09:10:20.965Z,85.40
2019-05-17T09:12:50.570Z,81.10
2019-05-17T09:15:20.383Z,78.30
2019-05-17T09:17:49.934Z,80.60
2019-05-17T09:20:20.465Z,78.40
2019-05-17T09:22:51.024Z,79.80
2019-05-17T09:25:22.052Z,83.60
2019-05-17T09:27:51.710Z,79.60
2019-05-17T09:30:21.394Z,78.30
2019-05-17T09:32:51.291Z,76.00
2019-05-17T09:35:21.005Z,83.10
2019-05-17T09:37:50.730Z,78.90
2019-05-17T09:40:20.177Z,77.10
2019-05-17T09:42:49.946Z,74.00
2019-05-17T09:45:20.307Z,73.60
2019-05-17T09:47:50.539Z,72.90
2019-05-17T09:50:20.567Z,68.80
2019-05-17T09:53:00.010Z,71.90
2019-05-17T09:55:30.076Z,73.10
2019-05-17T09:58:00.279Z,76.60
2019-05-17T10:00:31.220Z,71.60
2019-05-17T10:03:00.724Z,69.00
2019-05-17T10:05:32.703Z,74.10
2019-05-17T10:08:02.155Z,72.00
2019-05-17T10:10:31.494Z,71.50
2019-05-17T10:13:00.832Z,72.10
2019-05-17T10:15:30.324Z,70.70
2019-05-17T10:18:00.647Z,68.90
2019-05-17T10:20:29.989Z,69.00
2019-05-17T10:22:59.699Z,71.10
2019-05-17T10:25:29.535Z,71.40
2019-05-17T10:28:00.559Z,69.60
2019-05-17T10:30:30.215Z,68.10
2019-05-17T10:33:00.120Z,67.70
2019-05-17T10:35:29.693Z,66.20
2019-05-17T10:37:59.923Z,72.70
2019-05-17T10:40:36.051Z,66.60
2019-05-17T10:43:05.547Z,70.10
2019-05-17T10:45:35.586Z,70.50
2019-05-17T10:48:05.090Z,67.50
2019-05-17T10:50:34.567Z,68.40
2019-05-17T10:53:04.829Z,68.00
2019-05-17T10:55:34.507Z,68.80
2019-05-17T10:58:04.214Z,64.40
2019-05-17T11:00:33.436Z,67.50
2019-05-17T11:03:02.655Z,68.10
2019-05-17T11:05:31.897Z,68.30
2019-05-17T11:08:01.372Z,69.00
2019-05-17T11:10:30.605Z,68.50
2019-05-17T11:12:59.855Z,67.90
2019-05-17T11:15:29.063Z,66.30
2019-05-17T11:17:58.532Z,67.80
2019-05-17T11:20:27.726Z,67.00
2019-05-17T11:22:57.191Z,67.40
2019-05-17T11:25:26.495Z,66.40
2019-05-17T11:27:56.027Z,63.60
2019-05-17T11:30:25.283Z,66.40
2019-05-17T11:32:55.458Z,68.80
2019-05-17T11:35:24.948Z,68.70
2019-05-17T11:37:54.446Z,65.90
2019-05-17T11:40:23.939Z,66.10
2019-05-17T11:42:53.210Z,69.10
2019-05-17T11:45:27.906Z,66.20
2019-05-17T11:47:53.593Z,66.90
2019-05-17T11:50:23.219Z,66.00
2019-05-17T11:52:52.495Z,66.60
2019-05-17T11:55:22.022Z,68.40
2019-05-17T11:57:51.322Z,67.20
2019-05-17T12:00:23.436Z,66.00
2019-05-17T12:02:52.707Z,65.10
2019-05-17T12:05:21.950Z,67.10
2019-05-17T12:07:51.265Z,63.60
2019-05-17T12:10:20.790Z,65.00
2019-05-17T12:12:50.467Z,64.60
2019-05-17T12:15:20.255Z,64.40
2019-05-17T12:17:49.430Z,63.00
2019-05-17T12:20:19.030Z,64.90
2019-05-17T12:22:48.619Z,62.90
2019-05-17T12:25:20.046Z,64.60
2019-05-17T12:27:49.834Z,65.60
2019-05-17T12:30:21.073Z,63.50
2019-05-17T12:32:51.154Z,67.70
2019-05-17T12:35:20.554Z,67.90
2019-05-17T12:37:50.165Z,66.10
2019-05-17T12:40:19.746Z,65.70
2019-05-17T12:42:48.956Z,64.50
2019-05-17T12:45:19.282Z,61.00
2019-05-17T12:47:48.817Z,66.20
2019-05-17T12:50:18.446Z,64.30
2019-05-17T12:52:48.403Z,63.50
2019-05-17T12:55:17.952Z,65.80
2019-05-17T12:57:47.200Z,66.40
2019-05-17T13:00:16.988Z,64.50
2019-05-17T13:02:46.715Z,63.70
2019-05-17T13:05:16.222Z,60.70
2019-05-17T13:07:45.488Z,63.00
2019-05-17T13:10:14.939Z,65.50
2019-05-17T13:16:43.088Z,63.80
2019-05-17T13:22:10.611Z,63.90
2019-05-17T13:25:18.421Z,61.60
2019-05-17T13:27:57.036Z,62.80
2019-05-17T13:30:30.127Z,64.70
2019-05-17T13:37:39.459Z,63.30
2019-05-17T13:40:39.043Z,61.80
2019-05-17T13:42:57.229Z,63.10
2019-05-17T13:45:30.604Z,62.50
2019-05-17T13:47:59.905Z,62.60
2019-05-17T13:50:29.625Z,62.20
2019-05-17T13:53:57.143Z,62.70
2019-05-17T14:00:04.804Z,62.70
2019-05-17T14:07:19.271Z,63.60
2019-05-17T14:10:29.870Z,62.60
2019-05-17T14:12:46.330Z,63.00
2019-05-17T14:20:11.400Z,63.70
2019-05-17T14:22:44.782Z,62.80
2019-05-17T14:25:40.065Z,62.60
2019-05-17T14:28:05.550Z,63.80
2019-05-17T14:30:54.784Z,62.80
2019-05-17T14:44:36.934Z,64.90
2019-05-17T14:47:24.099Z,63.00
2019-05-17T14:49:58.911Z,63.00
2019-05-17T14:52:39.007Z,63.60
2019-05-17T14:55:11.634Z,62.70
2019-05-17T14:57:43.407Z,62.30
2019-05-17T15:00:14.499Z,62.50
2019-05-17T15:02:44.269Z,62.40
2019-05-17T15:05:15.561Z,64.10
2019-05-17T15:07:45.143Z,61.00
2019-05-17T15:10:14.993Z,64.40
2019-05-17T15:12:44.231Z,65.00
2019-05-17T15:15:13.922Z,62.00
2019-05-17T15:17:43.139Z,64.20
2019-05-17T15:20:12.775Z,63.20
2019-05-17T15:22:42.170Z,62.90
2019-05-17T15:25:11.806Z,62.90
2019-05-17T15:27:42.286Z,63.90
2019-05-17T15:30:18.506Z,61.80
2019-05-17T15:32:51.820Z,63.20
2019-05-17T15:35:21.234Z,62.00
2019-05-17T15:37:50.790Z,62.70
2019-05-17T15:40:20.066Z,65.00
2019-05-17T15:43:01.598Z,63.00
2019-05-17T15:45:30.961Z,63.10
2019-05-17T15:48:00.446Z,63.30
2019-05-17T15:50:29.681Z,65.00
2019-05-17T15:52:59.258Z,63.60
2019-05-17T15:55:28.889Z,63.10
2019-05-17T15:57:58.998Z,62.60
2019-05-17T16:00:28.278Z,64.00
2019-05-17T16:02:57.602Z,64.30
2019-05-17T16:05:27.698Z,63.10
2019-05-17T16:07:56.919Z,62.80
2019-05-17T16:10:26.142Z,62.00
2019-05-17T16:13:02.179Z,62.20
2019-05-17T16:15:26.857Z,65.90
2019-05-17T16:17:57.984Z,63.40
2019-05-17T16:20:27.359Z,64.50
2019-05-17T16:23:05.374Z,62.80
2019-05-17T16:25:39.172Z,65.60
2019-05-17T16:28:09.441Z,64.40
2019-05-17T16:30:38.833Z,64.30
2019-05-17T16:33:08.394Z,64.40
2019-05-17T16:35:38.487Z,63.90
2019-05-17T16:38:07.910Z,64.90
2019-05-17T16:40:37.474Z,64.70
2019-05-17T16:43:17.643Z,64.20
2019-05-17T16:45:43.860Z,63.60
2019-05-17T16:48:13.394Z,64.20
2019-05-17T16:50:43.154Z,65.10
2019-05-17T16:53:12.524Z,64.30
2019-05-17T16:55:42.494Z,63.90
2019-05-17T16:58:12.215Z,64.10
2019-05-17T17:00:43.316Z,64.00
2019-05-17T17:03:12.927Z,63.70
2019-05-17T17:05:42.545Z,64.80
2019-05-17T17:08:11.795Z,66.00
2019-05-17T17:10:46.869Z,65.70
2019-05-17T17:13:16.127Z,65.80
2019-05-17T17:15:45.942Z,65.40
2019-05-17T17:18:15.508Z,64.90
2019-05-17T17:20:44.795Z,66.10
2019-05-17T17:23:14.413Z,65.50
2019-05-17T17:25:44.107Z,64.40
2019-05-17T17:28:13.544Z,66.60
2019-05-17T17:30:42.894Z,65.30
2019-05-17T17:33:12.398Z,66.00
2019-05-17T17:35:42.199Z,65.50
2019-05-17T17:38:11.971Z,64.60
2019-05-17T17:40:41.638Z,65.40
2019-05-17T17:43:11.643Z,64.80
2019-05-17T17:45:41.794Z,66.80
2019-05-17T17:48:15.019Z,66.60
2019-05-17T17:50:58.404Z,65.60
2019-05-17T17:53:39.513Z,65.70
2019-05-17T17:56:13.567Z,65.80
2019-05-17T17:58:45.306Z,66.90
2019-05-17T18:01:18.831Z,66.00
2019-05-17T18:03:48.881Z,66.20
2019-05-17T18:06:20.331Z,66.30
2019-05-17T18:08:49.916Z,68.10
2019-05-17T18:11:20.024Z,67.00
2019-05-17T18:13:49.384Z,66.00
2019-05-17T18:16:24.580Z,66.10
2019-05-17T18:18:54.254Z,67.10
2019-05-17T18:21:23.632Z,66.30
2019-05-17T18:23:57.248Z,65.80
2019-05-17T18:26:28.162Z,67.70
2019-05-17T18:28:58.047Z,67.70
2019-05-17T18:31:34.176Z,67.00
2019-05-17T18:34:04.019Z,68.60
2019-05-17T18:36:34.899Z,67.40
2019-05-17T18:39:06.403Z,67.40
2019-05-17T18:41:35.999Z,67.10
2019-05-17T18:44:07.835Z,66.90
2019-05-17T18:46:37.506Z,67.00
2019-05-17T18:49:07.169Z,67.90
2019-05-17T18:51:37.601Z,66.90
2019-05-17T18:54:09.288Z,66.60
2019-05-17T18:56:45.099Z,66.90
2019-05-17T18:59:14.778Z,66.20
2019-05-17T19:01:44.792Z,66.50
2019-05-17T19:04:14.562Z,66.40
2019-05-17T19:06:44.644Z,67.10
2019-05-17T19:09:14.250Z,67.20
2019-05-17T19:11:43.918Z,67.30
2019-05-17T19:14:13.569Z,66.80
2019-05-17T19:16:43.256Z,66.80
2019-05-17T19:19:14.754Z,66.70
2019-05-17T19:21:44.039Z,66.60
2019-05-17T19:24:13.358Z,66.50
2019-05-17T19:26:42.978Z,66.50
2019-05-17T19:29:12.314Z,66.70
2019-05-17T19:31:42.038Z,66.60
2019-05-17T19:34:11.324Z,66.80
2019-05-17T19:36:41.657Z,66.70
2019-05-17T19:39:11.163Z,67.20
2019-05-17T19:41:41.124Z,67.10
2019-05-17T19:44:10.810Z,67.30
2019-05-17T19:46:40.197Z,68.80
2019-05-17T19:49:09.496Z,68.20
2019-05-17T19:51:49.279Z,68.60
2019-05-17T19:54:19.234Z,67.80
2019-05-17T19:57:10.172Z,67.60
2019-05-17T20:00:03.728Z,67.60
2019-05-17T20:02:46.752Z,67.70
2019-05-17T20:05:28.621Z,67.80
2019-05-17T20:08:11.493Z,68.00
2019-05-17T20:11:34.136Z,67.90
2019-05-17T20:13:50.175Z,68.70
2019-05-17T20:16:36.671Z,68.40
2019-05-17T20:19:04.709Z,69.30
2019-05-17T20:21:34.588Z,68.70
2019-05-17T20:26:41.684Z,69.00
2019-05-17T20:29:10.909Z,70.00
2019-05-17T20:31:47.295Z,68.90
2019-05-17T20:34:17.526Z,68.50
2019-05-17T20:36:47.623Z,68.50
2019-05-17T20:39:21.480Z,70.00
2019-05-17T20:41:52.522Z,69.00
2019-05-17T20:44:41.845Z,68.60
2019-05-17T20:47:12.473Z,68.70
2019-05-17T20:49:46.967Z,69.40
2019-05-17T20:52:17.293Z,70.50
2019-05-17T20:54:47.572Z,70.40
2019-05-17T20:57:17.440Z,70.60
2019-05-17T20:59:47.254Z,69.70
2019-05-17T21:02:17.201Z,69.30
2019-05-17T21:04:47.219Z,69.50
2019-05-17T21:07:17.063Z,69.30
2019-05-17T21:09:46.675Z,69.30
2019-05-17T21:12:16.670Z,69.40
2019-05-17T21:14:47.207Z,69.40
2019-05-17T21:17:17.132Z,70.00
2019-05-17T21:19:47.824Z,69.40
2019-05-17T21:22:20.462Z,69.70
2019-05-17T21:24:50.414Z,69.60
2019-05-17T21:27:20.621Z,69.60
2019-05-17T21:29:50.239Z,72.10
2019-05-17T21:32:24.685Z,70.50
2019-05-17T21:34:57.614Z,70.20
2019-05-17T21:37:27.748Z,70.30
2019-05-17T21:39:57.153Z,70.50
2019-05-17T21:42:32.472Z,71.40
2019-05-17T21:45:03.318Z,73.60
2019-05-17T21:47:33.195Z,71.20
2019-05-17T21:50:02.922Z,71.00
2019-05-17T21:52:48.741Z,71.00
2019-05-17T21:55:23.809Z,71.00
2019-05-17T21:57:53.488Z,71.20
2019-05-17T22:01:06.270Z,71.50
2019-05-17T22:03:51.979Z,71.50
2019-05-17T22:06:23.554Z,71.80
2019-05-17T22:08:55.244Z,71.60
2019-05-17T22:11:28.835Z,71.70
2019-05-17T22:13:58.334Z,71.60
2019-05-17T22:16:27.623Z,71.40
2019-05-17T22:18:57.868Z,71.80
2019-05-17T22:21:27.186Z,72.10
2019-05-17T22:23:59.015Z,72.30
2019-05-17T22:26:28.485Z,72.40
2019-05-17T22:28:58.095Z,72.90
2019-05-17T22:31:28.031Z,72.10
2019-05-17T22:33:57.567Z,72.10
2019-05-17T22:36:26.862Z,72.90
2019-05-17T22:38:56.813Z,72.90
2019-05-17T22:41:26.312Z,73.20
2019-05-17T22:43:55.786Z,73.30
2019-05-17T22:46:35.608Z,73.70
2019-05-17T22:48:55.903Z,73.40
2019-05-17T22:51:25.179Z,73.70
2019-05-17T22:53:54.790Z,73.70
2019-05-17T22:56:24.361Z,74.10
2019-05-17T22:58:53.826Z,73.70
2019-05-17T23:01:26.195Z,73.20
2019-05-17T23:03:56.521Z,73.20
2019-05-17T23:06:26.568Z,72.80
2019-05-17T23:08:58.507Z,73.80
2019-05-17T23:11:28.824Z,73.90
2019-05-17T23:13:58.915Z,74.30
2019-05-17T23:16:34.579Z,74.50
2019-05-17T23:19:08.098Z,74.40
2019-05-17T23:21:38.070Z,74.20
2019-05-17T23:24:07.654Z,74.50
2019-05-17T23:26:40.249Z,74.70
2019-05-17T23:29:10.599Z,74.20
2019-05-17T23:31:50.411Z,74.60
2019-05-17T23:34:20.819Z,74.90
2019-05-17T23:36:50.399Z,75.00
2019-05-17T23:39:20.697Z,75.00
2019-05-17T23:41:52.885Z,74.80
2019-05-17T23:44:24.180Z,74.80
2019-05-17T23:47:06.008Z,74.90
2019-05-17T23:49:24.693Z,75.10
2019-05-17T23:51:54.883Z,74.50
2019-05-17T23:54:27.243Z,74.80
2019-05-17T23:57:01.305Z,75.50
2019-05-17T23:59:31.334Z,75.10
